KGNT/GNT METAR and TAF weather

Enter ICAO airport designator
Station Type Date Time Source
KGNT METAR 2024/04/18 06:35 UTC NOAA

KGNT 180635Z AUTO 26014G22KT 10SM CLR 14/M06 A3013 RMK AO2 T01411065


Station Type Date Time Source
KGNT Decoded METAR 2024/04/18 06:35 UTC NOAA

GRANTS-MILAN MUNICIPAL AIRPORT , NM, United States (KGNT) 35-10N 107-54W 1987M
Apr 18, 2024 - 02:35 AM EDT / 2024.04.18 0635 UTC
Wind: from the W (260 degrees) at 16 MPH (14 KT) gusting to 25 MPH (22 KT):0
Visibility: 10 mile(s):0
Sky conditions: clear
Temperature: 57.4 F (14.1 C)
Dew Point: 20.3 F (-6.5 C)
Relative Humidity: 23%
Pressure (altimeter): 30.13 in. Hg (1020 hPa)
ob: KGNT 180635Z AUTO 26014G22KT 10SM CLR 14/M06 A3013 RMK AO2 T01411065
cycle: 6

Station Type Date Time Source
KGNT TAF UTC NOAA

Error!

Example: see airport list